Time;durP1;ratioP1;P1;durP2;ratioP2;P2;SDS_P1;SDS_P2;PMS_P1;PMS_P2;Temp;Humidity;BMP_temperature;BMP_pressure;BME280_temperature;BME280_humidity;BME280_pressure;Samples;Min_cycle;Max_cycle;Signal;HPM_P1;HPM_P2
2022/08/08 00:01:48;;;;;;;9.07;7.63;;;;;;;18.41;56.76;102071.47;5076921;28;20180;-64
2022/08/08 00:04:55;;;;;;;8.13;7.20;;;;;;;18.33;57.16;102073.25;5081122;28;20489;-63
2022/08/08 00:07:36;;;;;;;8.57;7.47;;;;;;;18.15;57.33;102075.00;5100931;28;20441;-64
2022/08/08 00:10:14;;;;;;;8.40;7.20;;;;;;;18.17;57.75;102077.66;5100377;28;20400;-64
2022/08/08 00:12:50;;;;;;;7.97;7.17;;;;;;;18.07;57.70;102071.50;5100160;28;20458;-66
2022/08/08 00:15:23;;;;;;;8.83;7.93;;;;;;;18.31;57.51;102072.38;5100662;28;20857;-64
2022/08/08 00:17:57;;;;;;;7.90;7.03;;;;;;;18.16;57.58;102068.88;5100247;28;20401;-64
2022/08/08 00:20:33;;;;;;;7.67;6.97;;;;;;;18.49;57.02;102068.81;5100875;28;20802;-64
2022/08/08 00:23:03;;;;;;;8.27;7.57;;;;;;;18.26;57.59;102071.50;5100518;28;20427;-65
2022/08/08 00:25:39;;;;;;;7.80;7.00;;;;;;;18.39;57.25;102070.59;5100485;28;20407;-64
2022/08/08 00:28:07;;;;;;;8.67;7.80;;;;;;;18.34;57.61;102069.72;5100024;28;20388;-64
2022/08/08 00:30:36;;;;;;;8.47;7.60;;;;;;;18.26;57.83;102064.44;5099664;28;20513;-64
2022/08/08 00:33:06;;;;;;;9.10;8.27;;;;;;;18.38;57.52;102060.91;5099561;28;20434;-64
2022/08/08 00:35:40;;;;;;;7.97;7.27;;;;;;;18.16;57.94;102063.59;5099469;28;20742;-64
2022/08/08 00:38:24;;;;;;;7.57;6.97;;;;;;;18.08;57.99;102062.72;5099672;28;20439;-64
2022/08/08 00:41:34;;;;;;;7.43;6.80;;;;;;;18.22;57.87;102059.19;5100344;28;20433;-64
2022/08/08 00:44:09;;;;;;;9.50;7.30;;;;;;;18.21;58.21;102062.69;5100178;28;20757;-64
2022/08/08 00:47:08;;;;;;;8.90;8.00;;;;;;;17.87;58.90;102063.53;5100397;28;20462;-65
2022/08/08 00:50:02;;;;;;;10.27;8.17;;;;;;;18.14;58.60;102062.72;5100313;28;20672;-64
2022/08/08 00:52:36;;;;;;;8.00;7.30;;;;;;;18.04;58.45;102060.97;5099509;28;20454;-63
2022/08/08 00:55:33;;;;;;;8.80;8.00;;;;;;;18.05;59.02;102057.44;5099865;28;20464;-64
2022/08/08 00:58:23;;;;;;;8.40;7.60;;;;;;;18.05;59.00;102053.91;5100039;28;20449;-63
2022/08/08 01:00:57;;;;;;;8.73;7.60;;;;;;;17.82;59.10;102060.91;5099951;28;20510;-63
2022/08/08 01:03:50;;;;;;;8.67;7.80;;;;;;;17.72;59.64;102056.50;5099689;28;20383;-63
2022/08/08 01:06:43;;;;;;;8.13;7.30;;;;;;;18.00;59.00;102059.19;5082219;28;20415;-64
2022/08/08 01:09:27;;;;;;;11.63;7.60;;;;;;;18.07;58.49;102066.22;5079594;28;20374;-64
2022/08/08 01:12:11;;;;;;;10.40;7.43;;;;;;;17.81;59.45;102061.78;5095526;28;20422;-64
2022/08/08 01:14:45;;;;;;;8.00;7.20;;;;;;;17.92;59.17;102063.59;5079273;28;20746;-63
2022/08/08 01:17:19;;;;;;;8.40;7.07;;;;;;;17.96;58.87;102063.59;5079352;28;20506;-64
2022/08/08 01:20:22;;;;;;;8.57;7.67;;;;;;;17.67;60.07;102060.88;5079452;28;20434;-65
2022/08/08 01:23:11;;;;;;;7.63;6.93;;;;;;;17.46;60.54;102064.38;5079172;28;20650;-65
2022/08/08 01:25:48;;;;;;;8.90;8.00;;;;;;;17.57;60.19;102065.28;5079417;28;20381;-65
2022/08/08 01:28:17;;;;;;;8.37;7.57;;;;;;;17.60;60.28;102069.66;5079148;28;20776;-65
2022/08/08 01:31:00;;;;;;;9.43;8.57;;;;;;;17.43;60.80;102061.75;5079053;28;20397;-64
2022/08/08 01:33:37;;;;;;;10.33;8.33;;;;;;;17.71;60.22;102067.06;5078795;28;20382;-65
2022/08/08 01:36:27;;;;;;;10.90;8.53;;;;;;;17.67;60.54;102066.16;5078959;28;20479;-65
2022/08/08 01:39:18;;;;;;;10.23;9.17;;;;;;;17.73;60.40;102070.59;5078577;28;20404;-63
2022/08/08 01:41:43;;;;;;;8.40;7.60;;;;;;;17.76;59.75;102065.31;5078319;28;20431;-65
2022/08/08 01:44:29;;;;;;;9.20;8.23;;;;;;;17.40;61.12;102072.25;5078709;28;20411;-65
2022/08/08 01:47:00;;;;;;;10.13;8.80;;;;;;;17.55;61.10;102066.13;5078172;28;20165;-64
2022/08/08 01:49:49;;;;;;;9.80;8.80;;;;;;;17.50;61.31;102069.66;5078838;28;20414;-64
2022/08/08 01:52:38;;;;;;;9.00;8.10;;;;;;;17.46;61.01;102067.88;5078181;28;20407;-65
2022/08/08 01:55:48;;;;;;;9.43;8.53;;;;;;;17.31;61.37;102074.00;5047161;28;20616;-64
2022/08/08 01:58:16;;;;;;;8.47;7.67;;;;;;;17.45;61.41;102060.84;5055237;28;20394;-63
2022/08/08 02:01:13;;;;;;;8.53;7.30;;;;;;;17.27;61.56;102063.47;5077915;28;20696;-64
2022/08/08 02:04:06;;;;;;;10.20;8.83;;;;;;;17.50;61.39;102059.09;5077605;28;20398;-65
2022/08/08 02:06:55;;;;;;;8.87;7.97;;;;;;;17.36;61.69;102060.84;5098144;28;20475;-65
2022/08/08 02:09:48;;;;;;;9.40;8.60;;;;;;;17.37;61.77;102059.94;5098971;28;20445;-64
2022/08/08 02:12:28;;;;;;;9.77;7.33;;;;;;;17.14;62.16;102068.69;5097765;28;20819;-64
2022/08/08 02:15:03;;;;;;;9.53;8.73;;;;;;;17.35;62.24;102059.09;5097670;28;20478;-65
2022/08/08 02:17:38;;;;;;;9.20;8.30;;;;;;;17.20;62.52;102059.03;5097961;28;20479;-65
2022/08/08 02:20:24;;;;;;;9.27;8.20;;;;;;;17.26;62.32;102059.06;5097891;28;20421;-64
2022/08/08 02:23:04;;;;;;;8.60;7.80;;;;;;;17.19;62.63;102062.56;5097762;28;20413;-65
2022/08/08 02:25:39;;;;;;;8.97;8.17;;;;;;;17.23;62.39;102066.97;5097184;28;20396;-65
2022/08/08 02:28:20;;;;;;;9.80;8.80;;;;;;;17.02;63.29;102075.66;5098459;28;20437;-65
2022/08/08 02:31:03;;;;;;;9.00;8.10;;;;;;;17.11;62.86;102078.31;5097563;28;20397;-64
2022/08/08 02:33:56;;;;;;;8.90;8.10;;;;;;;17.27;62.49;102072.22;5098233;28;20466;-64
2022/08/08 02:36:55;;;;;;;9.27;8.30;;;;;;;17.23;62.29;102074.88;5098361;28;20784;-63
2022/08/08 02:39:25;;;;;;;8.40;7.60;;;;;;;17.23;62.49;102069.59;5098193;28;20389;-64
2022/08/08 02:42:09;;;;;;;8.50;7.70;;;;;;;17.20;62.79;102074.84;5098309;28;20434;-64
2022/08/08 02:44:43;;;;;;;9.30;8.20;;;;;;;17.15;62.97;102075.69;5098084;28;20417;-65
2022/08/08 02:47:43;;;;;;;9.30;8.40;;;;;;;17.34;62.11;102074.00;5098317;28;20414;-64
2022/08/08 02:50:45;;;;;;;8.20;7.37;;;;;;;17.27;62.77;102081.91;5097927;28;20392;-63
2022/08/08 02:53:29;;;;;;;9.30;8.40;;;;;;;17.23;62.53;102074.88;5097827;28;20476;-64
2022/08/08 02:56:27;;;;;;;8.47;7.67;;;;;;;17.24;62.71;102076.59;5097989;28;20890;-64
2022/08/08 02:59:01;;;;;;;8.43;7.63;;;;;;;16.96;63.61;102077.38;5069374;28;20389;-64
2022/08/08 03:01:57;;;;;;;8.57;7.77;;;;;;;16.97;63.55;102076.50;5098053;28;20467;-65
2022/08/08 03:04:31;;;;;;;8.93;8.07;;;;;;;17.11;63.15;102070.44;5096063;28;20448;-64
2022/08/08 03:07:36;;;;;;;9.50;8.50;;;;;;;17.20;63.22;102074.84;5077715;28;20385;-64
2022/08/08 03:10:23;;;;;;;9.20;8.30;;;;;;;17.04;63.60;102082.69;5093883;28;20431;-65
2022/08/08 03:13:01;;;;;;;9.67;8.70;;;;;;;17.09;63.28;102078.31;5077447;28;20415;-65
2022/08/08 03:15:36;;;;;;;10.40;9.30;;;;;;;17.00;63.62;102086.19;5093625;28;20484;-65
2022/08/08 03:18:07;;;;;;;11.77;8.93;;;;;;;17.12;63.19;102083.59;5077789;28;20468;-65
2022/08/08 03:20:49;;;;;;;8.70;7.90;;;;;;;17.28;62.74;102084.53;5077561;28;20392;-64
2022/08/08 03:23:16;;;;;;;8.90;8.10;;;;;;;17.26;63.00;102090.69;5077439;28;20424;-65
2022/08/08 03:25:44;;;;;;;9.27;8.47;;;;;;;17.03;63.69;102091.47;5077451;28;20771;-63
2022/08/08 03:28:15;;;;;;;9.27;8.27;;;;;;;17.07;63.38;102098.50;5076788;28;20449;-64
2022/08/08 03:30:44;;;;;;;9.63;8.17;;;;;;;17.28;63.19;102099.50;5076665;28;20382;-63
2022/08/08 03:33:18;;;;;;;8.50;7.70;;;;;;;17.51;62.75;102089.00;5077336;28;20480;-64
2022/08/08 03:35:46;;;;;;;9.77;8.80;;;;;;;17.38;62.74;102097.75;5076710;28;20448;-63
2022/08/08 03:38:12;;;;;;;9.50;8.50;;;;;;;17.58;61.44;102087.25;5080870;28;20381;-64
2022/08/08 03:40:37;;;;;;;13.07;7.80;;;;;;;17.44;61.63;102100.41;5081291;28;20397;-64
2022/08/08 03:43:06;;;;;;;13.73;8.03;;;;;;;17.63;60.56;102098.69;5081435;28;20251;-63
2022/08/08 03:45:31;;;;;;;22.10;9.90;;;;;;;17.45;60.94;102099.53;5081021;28;20199;-64
2022/08/08 03:48:01;;;;;;;13.60;7.70;;;;;;;17.44;60.80;102097.75;5081065;28;20518;-64
2022/08/08 03:50:27;;;;;;;13.53;7.70;;;;;;;17.42;61.10;102096.88;5081251;28;20214;-63
2022/08/08 03:52:53;;;;;;;12.60;8.10;;;;;;;17.60;60.73;102098.69;5080860;28;20415;-64
2022/08/08 03:55:19;;;;;;;20.50;7.60;;;;;;;17.56;60.37;102099.56;5079944;28;20806;-65
2022/08/08 03:57:47;;;;;;;13.23;8.37;;;;;;;17.57;60.43;102096.91;5081573;28;20189;-64
2022/08/08 04:00:15;;;;;;;10.27;7.33;;;;;;;17.69;59.87;102101.34;5080148;28;20440;-63
2022/08/08 04:02:41;;;;;;;12.40;7.97;;;;;;;17.61;60.44;102097.81;5080802;28;20381;-64
2022/08/08 04:05:07;;;;;;;9.20;7.77;;;;;;;17.37;61.45;102106.53;5089279;28;20418;-65
2022/08/08 04:07:37;;;;;;;11.13;7.87;;;;;;;17.72;60.21;102103.97;5101249;28;20429;-63
2022/08/08 04:10:04;;;;;;;16.33;8.30;;;;;;;17.64;60.27;102108.34;5100414;28;20436;-64
2022/08/08 04:12:29;;;;;;;9.00;8.10;;;;;;;17.74;59.72;102107.50;5101327;28;20459;-64
2022/08/08 04:14:55;;;;;;;9.33;7.20;;;;;;;17.78;59.88;102111.91;5099911;28;20453;-63
2022/08/08 04:17:20;;;;;;;8.13;7.33;;;;;;;17.96;58.95;102105.81;5100946;28;20179;-64
2022/08/08 04:19:45;;;;;;;8.40;7.70;;;;;;;17.82;59.42;102108.41;5101162;28;20164;-64
2022/08/08 04:22:11;;;;;;;11.47;8.17;;;;;;;17.81;59.71;102109.28;5100930;28;20441;-63
2022/08/08 04:24:36;;;;;;;10.03;8.20;;;;;;;18.18;58.78;102104.06;5100538;28;20416;-65
2022/08/08 04:27:02;;;;;;;12.07;8.87;;;;;;;18.34;57.92;102101.41;5101071;28;20172;-63
2022/08/08 04:29:27;;;;;;;11.50;9.00;;;;;;;18.50;57.36;102104.91;5100758;28;20444;-64
2022/08/08 04:31:53;;;;;;;11.67;9.10;;;;;;;19.17;55.55;102101.22;5100641;28;20172;-65
2022/08/08 04:34:18;;;;;;;10.70;9.60;;;;;;;18.91;55.92;102103.94;5099983;28;20202;-65
2022/08/08 04:36:43;;;;;;;10.00;8.40;;;;;;;19.62;54.17;102102.72;5099728;28;20378;-65
2022/08/08 04:39:09;;;;;;;13.77;8.83;;;;;;;20.20;52.16;102098.78;5100367;28;20164;-63
2022/08/08 04:41:34;;;;;;;12.20;9.23;;;;;;;20.06;52.28;102098.06;5101160;28;20180;-65
2022/08/08 04:43:59;;;;;;;12.40;8.80;;;;;;;20.44;51.84;102094.19;5100268;28;20533;-64
2022/08/08 04:46:25;;;;;;;12.77;8.40;;;;;;;20.50;51.35;102096.78;5100380;28;20178;-64
2022/08/08 04:48:50;;;;;;;9.50;8.60;;;;;;;19.94;53.52;102096.38;5100402;28;20172;-64
2022/08/08 04:51:15;;;;;;;11.10;8.60;;;;;;;19.48;54.41;102100.19;5099394;28;20449;-64
2022/08/08 04:53:41;;;;;;;12.93;8.67;;;;;;;19.25;54.73;102095.88;5099963;28;20299;-65
2022/08/08 04:56:06;;;;;;;15.03;8.80;;;;;;;19.56;54.25;102098.38;5100445;28;20580;-65
2022/08/08 04:58:32;;;;;;;12.90;8.90;;;;;;;20.34;51.81;102099.56;5099152;28;20463;-65
2022/08/08 05:00:57;;;;;;;8.70;7.57;;;;;;;20.22;52.71;102101.47;5099932;28;20571;-64
2022/08/08 05:03:22;;;;;;;12.10;8.57;;;;;;;20.55;51.26;102104.66;5100391;28;20172;-63
2022/08/08 05:05:48;;;;;;;10.97;8.23;;;;;;;19.78;53.51;102107.06;5086308;28;20214;-63
2022/08/08 05:08:13;;;;;;;15.60;8.33;;;;;;;19.40;54.76;102107.28;5079748;28;20169;-63
2022/08/08 05:10:39;;;;;;;11.23;8.10;;;;;;;20.01;53.67;102109.56;5079292;28;20180;-63
2022/08/08 05:13:04;;;;;;;12.40;8.73;;;;;;;19.84;53.84;102111.47;5079281;28;20420;-64
2022/08/08 05:15:30;;;;;;;14.43;8.60;;;;;;;19.83;54.08;102107.91;5079356;28;20283;-62
2022/08/08 05:17:55;;;;;;;16.23;8.90;;;;;;;20.18;52.86;102111.19;5080028;28;20184;-63
2022/08/08 05:20:20;;;;;;;13.20;8.07;;;;;;;20.63;52.00;102113.41;5079397;28;20292;-63
2022/08/08 05:22:47;;;;;;;9.50;7.23;;;;;;;20.63;50.93;102118.72;5079335;28;20201;-64
2022/08/08 05:25:12;;;;;;;14.60;7.70;;;;;;;20.84;50.74;102105.25;5079476;28;20195;-64
2022/08/08 05:27:37;;;;;;;12.23;8.37;;;;;;;20.39;51.66;102114.53;5079144;28;20419;-64
2022/08/08 05:30:03;;;;;;;10.00;7.33;;;;;;;20.49;50.78;102119.72;5079182;28;20230;-63
2022/08/08 05:32:29;;;;;;;8.80;5.90;;;;;;;19.86;51.76;102112.31;5079430;28;20165;-64
2022/08/08 05:34:58;;;;;;;11.13;6.43;;;;;;;20.24;50.98;102118.19;5078066;28;20509;-64
2022/08/08 05:37:25;;;;;;;9.70;6.70;;;;;;;20.30;51.35;102118.16;5078854;28;20173;-63
2022/08/08 05:39:53;;;;;;;7.80;5.80;;;;;;;20.49;50.93;102117.06;5079275;28;20407;-64
2022/08/08 05:42:21;;;;;;;11.40;5.50;;;;;;;20.49;50.90;102118.84;5078298;28;20419;-65
2022/08/08 05:44:50;;;;;;;14.60;6.57;;;;;;;20.31;51.63;102120.78;5078103;28;20827;-65
2022/08/08 05:47:16;;;;;;;10.07;6.20;;;;;;;20.11;52.19;102125.38;5079171;28;20403;-65
2022/08/08 05:49:43;;;;;;;9.83;6.10;;;;;;;20.33;51.40;102126.94;5078690;28;20419;-65
2022/08/08 05:52:09;;;;;;;9.33;5.83;;;;;;;19.83;52.73;102126.44;5078721;28;20169;-64
2022/08/08 05:54:34;;;;;;;12.30;7.77;;;;;;;;;;5078331;28;20754;-65
2022/08/08 05:57:00;;;;;;;9.63;5.87;;;;;;;22.76;45.43;102115.66;5078431;28;20413;-65
2022/08/08 05:59:25;;;;;;;12.60;8.70;;;;;;;24.30;41.81;102108.69;5077516;28;20518;-65
2022/08/08 06:01:55;;;;;;;9.50;6.10;;;;;;;24.94;40.55;102113.19;5078602;28;20469;-65
2022/08/08 06:04:26;;;;;;;8.67;6.03;;;;;;;25.24;39.76;102117.69;5079806;28;20169;-64
2022/08/08 06:06:56;;;;;;;12.40;5.60;;;;;;;25.82;38.62;102118.53;5098566;28;20414;-65
2022/08/08 06:09:27;;;;;;;17.50;6.20;;;;;;;26.11;37.64;102121.19;5098580;28;20418;-64
2022/08/08 06:11:56;;;;;;;11.50;6.50;;;;;;;26.68;37.09;102125.44;5097980;28;20414;-64
2022/08/08 06:14:21;;;;;;;13.47;6.43;;;;;;;26.75;36.58;102120.78;5097470;28;20468;-66
2022/08/08 06:16:47;;;;;;;11.70;6.50;;;;;;;26.71;36.91;102121.78;5098807;28;20767;-63
2022/08/08 06:19:13;;;;;;;11.80;6.90;;;;;;;27.29;36.28;102120.53;5097677;28;20415;-65
2022/08/08 06:21:39;;;;;;;14.50;6.30;;;;;;;27.92;34.74;102123.41;5097772;28;20182;-65
2022/08/08 06:24:05;;;;;;;8.73;5.50;;;;;;;27.73;35.13;102125.97;5098640;28;20422;-64
2022/08/08 06:26:36;;;;;;;13.03;5.37;;;;;;;27.05;35.74;102123.25;5097565;28;20431;-65
2022/08/08 06:29:08;;;;;;;10.40;5.97;;;;;;;28.95;32.78;102118.06;5098250;28;20856;-64
2022/08/08 06:31:36;;;;;;;15.83;6.33;;;;;;;28.81;33.45;102134.81;5098321;28;20418;-63
2022/08/08 06:34:09;;;;;;;11.87;5.00;;;;;;;28.17;34.21;102128.63;5098110;28;20410;-64
2022/08/08 06:36:41;;;;;;;9.80;4.70;;;;;;;28.47;33.83;102128.25;5097426;28;20799;-64
2022/08/08 06:39:10;;;;;;;9.63;4.80;;;;;;;28.26;34.21;102138.09;5097986;28;20414;-64
2022/08/08 06:41:50;;;;;;;5.50;5.00;;;;;;;28.42;34.02;102143.66;5097842;28;20414;-65
2022/08/08 06:44:16;;;;;;;11.60;4.70;;;;;;;28.76;33.29;102136.81;5098061;28;20414;-64
2022/08/08 06:46:43;;;;;;;12.73;4.70;;;;;;;27.87;35.12;102153.09;5097866;28;20747;-65
2022/08/08 06:49:08;;;;;;;8.90;4.87;;;;;;;28.91;33.73;102140.63;5097075;28;20682;-64
2022/08/08 06:51:34;;;;;;;5.07;4.57;;;;;;;29.36;33.00;102133.22;5097692;28;20403;-65
2022/08/08 06:54:01;;;;;;;6.33;4.93;;;;;;;28.01;35.50;102143.59;5097719;28;20220;-65
2022/08/08 06:56:29;;;;;;;5.33;4.83;;;;;;;28.04;35.85;102138.13;5097840;28;20177;-64
2022/08/08 06:58:54;;;;;;;5.63;5.03;;;;;;;27.29;37.16;102150.00;5097978;28;20507;-63
2022/08/08 07:01:23;;;;;;;5.97;5.17;;;;;;;29.47;33.62;102149.69;5097778;28;20476;-63
2022/08/08 07:03:53;;;;;;;5.40;4.90;;;;;;;28.81;34.31;102145.56;5097754;28;20171;-64
2022/08/08 07:06:23;;;;;;;6.00;4.47;;;;;;;28.32;35.04;102153.03;5080193;28;20423;-64
2022/08/08 07:08:57;;;;;;;6.67;4.80;;;;;;;29.57;33.04;102144.75;5077655;28;20434;-64
2022/08/08 07:11:27;;;;;;;4.90;4.40;;;;;;;29.92;32.42;102146.66;5079960;28;20413;-64
2022/08/08 07:13:58;;;;;;;4.90;4.40;;;;;;;28.20;34.41;102154.44;5081645;28;20437;-64
2022/08/08 07:16:43;;;;;;;4.87;4.37;;;;;;;29.05;32.50;102139.97;5081649;28;20484;-64
2022/08/08 07:19:29;;;;;;;5.93;4.27;;;;;;;28.22;34.25;102147.19;5081670;28;20449;-64
2022/08/08 07:22:01;;;;;;;7.80;4.80;;;;;;;28.60;33.80;102147.34;5080800;28;20415;-64
2022/08/08 07:24:44;;;;;;;4.97;4.43;;;;;;;29.51;33.08;102145.91;5081383;28;20411;-65
2022/08/08 07:27:14;;;;;;;7.20;4.77;;;;;;;30.15;31.70;102138.31;5080733;28;20423;-65
2022/08/08 07:29:39;;;;;;;5.00;4.50;;;;;;;30.53;30.81;102140.84;5081384;28;20423;-64
2022/08/08 07:32:06;;;;;;;5.63;4.77;;;;;;;30.20;31.39;102144.34;5081379;28;20723;-65
2022/08/08 07:34:33;;;;;;;5.07;4.43;;;;;;;30.53;30.65;102146.25;5081521;28;20181;-64
2022/08/08 07:37:01;;;;;;;7.77;4.87;;;;;;;29.38;31.15;102150.13;5081152;28;20415;-66
2022/08/08 07:39:26;;;;;;;15.63;14.33;;;;;;;31.45;29.37;102144.88;5081293;28;20812;-65
2022/08/08 07:41:52;;;;;;;4.40;4.00;;;;;;;29.44;31.37;102152.50;5081728;28;20417;-65
2022/08/08 07:44:18;;;;;;;4.93;3.93;;;;;;;28.77;32.35;102159.16;5081151;28;20517;-64
2022/08/08 07:46:44;;;;;;;5.07;4.50;;;;;;;27.52;35.09;102158.03;5081127;28;20472;-64
2022/08/08 07:49:12;;;;;;;4.87;4.10;;;;;;;28.97;33.03;102151.09;5081381;28;20169;-64
2022/08/08 07:51:38;;;;;;;6.10;4.67;;;;;;;29.77;31.56;102156.31;5080935;28;20753;-65
2022/08/08 07:54:15;;;;;;;5.60;5.03;;;;;;;29.07;33.37;102164.97;5080061;28;20541;-65
2022/08/08 07:56:58;;;;;;;5.00;4.50;;;;;;;28.46;32.78;102161.38;5080891;28;20218;-65
2022/08/08 07:59:25;;;;;;;4.60;4.20;;;;;;;28.01;33.65;102165.03;5080454;28;20442;-65
2022/08/08 08:01:56;;;;;;;5.00;4.27;;;;;;;28.39;33.28;102162.56;5080111;28;20453;-65
2022/08/08 08:04:27;;;;;;;6.03;4.40;;;;;;;27.74;34.68;102167.91;5082351;28;20800;-65
2022/08/08 08:06:53;;;;;;;6.60;5.37;;;;;;;29.55;32.35;102165.44;5100359;28;20433;-65
2022/08/08 08:09:23;;;;;;;7.10;5.23;;;;;;;28.79;31.35;102174.25;5100466;28;20682;-64
2022/08/08 08:11:49;;;;;;;5.50;3.90;;;;;;;27.50;32.06;102175.97;5101414;28;20199;-64
2022/08/08 08:14:26;;;;;;;6.13;4.00;;;;;;;28.25;31.73;102164.97;5100802;28;20681;-65
2022/08/08 08:16:51;;;;;;;5.37;4.23;;;;;;;29.28;31.10;102173.88;5100062;28;20781;-65
2022/08/08 08:19:18;;;;;;;4.10;3.70;;;;;;;29.46;29.85;102173.94;5100917;28;20447;-66
2022/08/08 08:21:46;;;;;;;4.93;3.30;;;;;;;28.30;31.89;102171.00;5099969;28;20525;-66
2022/08/08 08:24:11;;;;;;;4.53;3.77;;;;;;;28.78;32.43;102171.66;5100688;28;20440;-67
2022/08/08 08:26:36;;;;;;;9.40;3.93;;;;;;;29.37;30.47;102169.88;5100626;28;20426;-65
2022/08/08 08:29:03;;;;;;;6.07;3.93;;;;;;;28.78;31.76;102174.31;5100619;28;20177;-65
2022/08/08 08:31:29;;;;;;;3.70;3.40;;;;;;;29.20;31.36;102168.81;5101218;28;20285;-65
2022/08/08 08:33:55;;;;;;;4.20;3.80;;;;;;;28.59;31.09;102171.56;5100372;28;20419;-65
2022/08/08 08:36:20;;;;;;;4.03;3.63;;;;;;;29.25;30.72;102174.00;5100422;28;20575;-65
2022/08/08 08:38:46;;;;;;;4.80;3.70;;;;;;;30.46;29.45;102170.84;5101022;28;20171;-63
2022/08/08 08:41:11;;;;;;;5.17;3.67;;;;;;;30.11;29.87;102170.81;5100496;28;20244;-65
2022/08/08 08:43:38;;;;;;;4.83;3.60;;;;;;;30.11;30.04;102171.69;5100393;28;20198;-65
2022/08/08 08:46:07;;;;;;;5.57;3.30;;;;;;;29.63;30.83;102181.19;5101060;28;20439;-65
2022/08/08 08:48:33;;;;;;;4.20;3.50;;;;;;;30.26;29.93;102170.03;5100307;28;20521;-65
2022/08/08 08:51:00;;;;;;;5.30;3.57;;;;;;;30.04;29.84;102167.59;5100535;28;20453;-65
2022/08/08 08:53:26;;;;;;;4.83;3.53;;;;;;;30.55;29.05;102171.25;5100301;28;20214;-65
2022/08/08 08:55:53;;;;;;;4.43;3.30;;;;;;;28.64;31.36;102174.94;5100096;28;20458;-64
2022/08/08 08:58:24;;;;;;;4.70;3.50;;;;;;;29.12;30.99;102187.09;5100037;28;20188;-65
2022/08/08 09:00:50;;;;;;;3.77;3.37;;;;;;;29.50;30.70;102187.16;5100303;28;20418;-67
2022/08/08 09:03:15;;;;;;;5.70;3.70;;;;;;;29.10;31.33;102182.75;5099269;28;20799;-66
2022/08/08 09:05:43;;;;;;;5.27;3.17;;;;;;;29.82;30.46;102182.06;5087573;28;20222;-65
2022/08/08 09:08:08;;;;;;;4.40;3.37;;;;;;;30.00;29.88;102180.31;5079646;28;20173;-65
2022/08/08 09:10:37;;;;;;;4.23;3.60;;;;;;;29.55;29.76;102187.81;5078986;28;20438;-66
2022/08/08 09:13:03;;;;;;;3.77;3.47;;;;;;;29.78;29.44;102191.19;5079959;28;20488;-65
2022/08/08 09:15:29;;;;;;;6.40;3.53;;;;;;;30.36;29.31;102191.97;5095720;28;20902;-65
2022/08/08 09:17:55;;;;;;;7.57;3.50;;;;;;;30.41;28.57;102188.06;5079484;28;20510;-66
2022/08/08 09:20:21;;;;;;;3.50;3.20;;;;;;;30.48;28.83;102188.66;5079728;28;20274;-66
2022/08/08 09:22:47;;;;;;;3.80;3.27;;;;;;;30.13;29.08;102187.75;5061765;28;20423;-65
2022/08/08 09:25:13;;;;;;;4.97;3.70;;;;;;;29.73;29.90;102193.25;5078510;28;20477;-65
2022/08/08 09:27:39;;;;;;;4.17;3.23;;;;;;;29.29;31.61;102190.84;5079944;28;20161;-66
2022/08/08 09:30:09;;;;;;;6.13;3.40;;;;;;;27.99;35.71;102189.22;5078579;28;20207;-64
2022/08/08 09:32:43;;;;;;;5.40;4.47;;;;;;;28.46;34.86;102188.19;5079112;28;20663;-65
2022/08/08 09:35:14;;;;;;;7.37;4.57;;;;;;;27.78;35.45;102190.06;5077849;28;20468;-65
2022/08/08 09:37:42;;;;;;;4.80;3.67;;;;;;;27.62;36.09;102189.84;5079112;28;20489;-66
2022/08/08 09:40:09;;;;;;;7.00;3.40;;;;;;;26.68;38.09;102194.09;5079178;28;20670;-65
2022/08/08 09:42:36;;;;;;;5.60;4.07;;;;;;;26.97;37.88;102186.88;5078954;28;20415;-67
2022/08/08 09:45:08;;;;;;;3.83;3.40;;;;;;;27.03;38.04;102194.69;5079085;28;20399;-65
2022/08/08 09:47:41;;;;;;;8.03;3.63;;;;;;;27.04;37.88;102191.94;5078963;28;20680;-65
2022/08/08 09:50:10;;;;;;;4.20;3.73;;;;;;;27.44;37.67;102183.38;5078071;28;20415;-65
2022/08/08 09:52:39;;;;;;;7.43;3.90;;;;;;;27.03;38.06;102190.19;5078728;28;20472;-65
2022/08/08 09:55:05;;;;;;;8.90;4.30;;;;;;;27.08;38.10;102190.03;5078376;28;20474;-64
2022/08/08 09:57:37;;;;;;;6.20;4.67;;;;;;;27.45;37.26;102191.34;5079309;28;20435;-64
2022/08/08 10:00:09;;;;;;;4.70;3.90;;;;;;;28.17;36.95;102189.41;5078590;28;20689;-65
2022/08/08 10:02:40;;;;;;;4.20;3.77;;;;;;;27.01;38.33;102192.06;5078558;28;20425;-66
2022/08/08 10:05:15;;;;;;;5.87;4.17;;;;;;;27.09;38.31;102191.78;5086039;28;20426;-65
2022/08/08 10:07:49;;;;;;;11.03;4.20;;;;;;;28.08;36.93;102192.47;5098829;28;20420;-64
2022/08/08 10:10:25;;;;;;;5.33;4.27;;;;;;;27.38;37.50;102195.19;5098773;28;20511;-65
2022/08/08 10:12:51;;;;;;;4.50;3.63;;;;;;;27.43;37.39;102197.69;5098848;28;20843;-64
2022/08/08 10:15:17;;;;;;;5.93;4.07;;;;;;;26.67;39.44;102190.56;5098489;28;20556;-63
2022/08/08 10:17:46;;;;;;;5.53;4.00;;;;;;;26.72;39.18;102187.75;5098680;28;20183;-63
2022/08/08 10:20:12;;;;;;;4.50;3.73;;;;;;;27.62;37.06;102192.50;5099098;28;20552;-63
2022/08/08 10:22:42;;;;;;;5.47;4.20;;;;;;;26.70;38.88;102193.16;5080901;28;20422;-63
2022/08/08 10:25:10;;;;;;;6.57;5.93;;;;;;;27.20;38.33;102189.56;5098387;28;20822;-64
2022/08/08 10:27:41;;;;;;;10.90;9.80;;;;;;;28.05;36.63;102188.13;5098057;28;20411;-64
2022/08/08 10:30:07;;;;;;;7.33;4.13;;;;;;;26.65;38.84;102196.91;5098399;28;20662;-64
2022/08/08 10:32:35;;;;;;;7.20;4.53;;;;;;;26.99;38.05;102193.03;5098223;28;20882;-63
2022/08/08 10:35:05;;;;;;;4.33;3.90;;;;;;;26.70;38.44;102189.59;5098543;28;20442;-64
2022/08/08 10:37:34;;;;;;;7.07;4.80;;;;;;;27.19;37.98;102192.31;5098153;28;20428;-65
2022/08/08 10:40:01;;;;;;;5.80;4.00;;;;;;;27.10;38.15;102192.66;5098192;28;20422;-65
2022/08/08 10:42:34;;;;;;;6.27;4.10;;;;;;;26.46;39.04;102185.97;5098207;28;20460;-65
2022/08/08 10:45:08;;;;;;;6.30;3.90;;;;;;;26.86;38.41;102185.47;5097466;28;20724;-65
2022/08/08 10:47:34;;;;;;;8.17;6.70;;;;;;;27.36;37.68;102186.31;5098246;28;20414;-64
2022/08/08 10:50:01;;;;;;;6.50;4.00;;;;;;;28.05;36.36;102183.63;5098154;28;20475;-65
2022/08/08 10:52:34;;;;;;;9.73;6.83;;;;;;;26.98;37.65;102194.84;5098549;28;20724;-64
2022/08/08 10:55:16;;;;;;;4.00;3.60;;;;;;;26.90;37.30;102194.25;5097700;28;20465;-64
2022/08/08 10:57:48;;;;;;;4.67;3.50;;;;;;;27.09;37.31;102193.56;5098137;28;20461;-64
2022/08/08 11:00:24;;;;;;;4.20;3.47;;;;;;;26.98;37.47;102185.94;5098187;28;20414;-64
2022/08/08 11:02:50;;;;;;;4.10;3.77;;;;;;;26.52;37.33;102191.09;5097184;28;20489;-66
2022/08/08 11:05:16;;;;;;;4.10;3.70;;;;;;;27.26;36.59;102182.25;5088012;28;20437;-65
2022/08/08 11:07:47;;;;;;;3.53;3.10;;;;;;;28.22;34.68;102176.69;5077748;28;20502;-64
2022/08/08 11:10:15;;;;;;;4.73;3.47;;;;;;;28.64;33.76;102178.50;5078304;28;20243;-66
2022/08/08 11:12:49;;;;;;;5.80;3.50;;;;;;;27.87;34.84;102185.25;5077087;28;20424;-66
2022/08/08 11:15:25;;;;;;;4.20;3.40;;;;;;;28.05;34.60;102180.09;5077656;28;20553;-64
2022/08/08 11:17:51;;;;;;;4.10;3.57;;;;;;;28.26;34.81;102180.13;5077520;28;20414;-65
2022/08/08 11:20:17;;;;;;;6.40;4.20;;;;;;;27.47;35.39;102181.44;5077624;28;20438;-65
2022/08/08 11:22:48;;;;;;;3.57;3.23;;;;;;;27.46;35.50;102185.06;5077557;28;20506;-65
2022/08/08 11:25:14;;;;;;;6.53;3.83;;;;;;;26.85;36.37;102177.50;5077726;28;20808;-65
2022/08/08 11:27:41;;;;;;;4.70;4.03;;;;;;;26.25;37.78;102188.44;5078156;28;20411;-66
2022/08/08 11:30:08;;;;;;;6.07;3.73;;;;;;;26.13;38.57;102183.47;5077728;28;20192;-66
2022/08/08 11:32:40;;;;;;;4.50;4.10;;;;;;;26.81;38.37;102182.06;5077534;28;20426;-66
2022/08/08 11:35:13;;;;;;;4.00;3.57;;;;;;;26.38;38.63;102186.22;5077290;28;20775;-66
2022/08/08 11:37:40;;;;;;;5.60;4.03;;;;;;;26.63;38.72;102186.25;5077675;28;20677;-65
2022/08/08 11:40:08;;;;;;;4.53;3.70;;;;;;;26.71;38.59;102176.19;5077574;28;20414;-66
2022/08/08 11:42:34;;;;;;;4.87;3.90;;;;;;;27.47;37.22;102173.41;5077487;28;20441;-65
2022/08/08 11:44:59;;;;;;;7.50;3.70;;;;;;;27.52;36.68;102182.16;5093764;28;20399;-65
2022/08/08 11:47:26;;;;;;;4.10;3.53;;;;;;;27.09;36.14;102183.75;5077420;28;20535;-65